sensor_id;sensor_type;location;lat;lon;timestamp;P1;durP1;ratioP1;P2;durP2;ratioP2
69008;SDS011;56065;52.472;13.380;2023-02-11T00:00:03;46.67;;;17.40;;
69008;SDS011;56065;52.472;13.380;2023-02-11T00:02:30;41.83;;;15.48;;
69008;SDS011;56065;52.472;13.380;2023-02-11T00:04:56;39.17;;;15.02;;
69008;SDS011;56065;52.472;13.380;2023-02-11T00:07:21;40.63;;;16.10;;
69008;SDS011;56065;52.472;13.380;2023-02-11T00:09:47;41.10;;;16.80;;
69008;SDS011;56065;52.472;13.380;2023-02-11T00:12:12;39.70;;;15.40;;
69008;SDS011;56065;52.472;13.380;2023-02-11T00:14:37;40.50;;;14.40;;
69008;SDS011;56065;52.472;13.380;2023-02-11T00:17:03;40.13;;;15.20;;
69008;SDS011;56065;52.472;13.380;2023-02-11T00:19:28;37.73;;;13.77;;
69008;SDS011;56065;52.472;13.380;2023-02-11T00:21:53;42.23;;;15.30;;
69008;SDS011;56065;52.472;13.380;2023-02-11T00:24:19;39.33;;;15.03;;
69008;SDS011;56065;52.472;13.380;2023-02-11T00:26:44;40.63;;;14.57;;
69008;SDS011;56065;52.472;13.380;2023-02-11T00:29:09;43.03;;;15.53;;
69008;SDS011;56065;52.472;13.380;2023-02-11T00:31:35;43.33;;;15.30;;
69008;SDS011;56065;52.472;13.380;2023-02-11T00:34:00;47.45;;;16.60;;
69008;SDS011;56065;52.472;13.380;2023-02-11T00:36:26;43.20;;;16.07;;
69008;SDS011;56065;52.472;13.380;2023-02-11T00:38:53;41.25;;;16.20;;
69008;SDS011;56065;52.472;13.380;2023-02-11T00:41:20;35.23;;;13.90;;
69008;SDS011;56065;52.472;13.380;2023-02-11T00:43:46;37.88;;;15.55;;
69008;SDS011;56065;52.472;13.380;2023-02-11T00:46:12;35.97;;;13.82;;
69008;SDS011;56065;52.472;13.380;2023-02-11T00:48:38;40.13;;;14.50;;
69008;SDS011;56065;52.472;13.380;2023-02-11T00:51:04;45.20;;;16.63;;
69008;SDS011;56065;52.472;13.380;2023-02-11T00:53:30;38.75;;;15.63;;
69008;SDS011;56065;52.472;13.380;2023-02-11T00:55:56;39.60;;;16.02;;
69008;SDS011;56065;52.472;13.380;2023-02-11T00:58:21;43.87;;;16.50;;
69008;SDS011;56065;52.472;13.380;2023-02-11T01:00:47;42.30;;;16.23;;
69008;SDS011;56065;52.472;13.380;2023-02-11T01:03:12;44.63;;;16.33;;
69008;SDS011;56065;52.472;13.380;2023-02-11T01:05:38;40.53;;;16.00;;
69008;SDS011;56065;52.472;13.380;2023-02-11T01:08:03;39.70;;;15.23;;
69008;SDS011;56065;52.472;13.380;2023-02-11T01:10:29;35.50;;;14.07;;
69008;SDS011;56065;52.472;13.380;2023-02-11T01:12:54;39.80;;;14.83;;
69008;SDS011;56065;52.472;13.380;2023-02-11T01:15:20;41.03;;;15.53;;
69008;SDS011;56065;52.472;13.380;2023-02-11T01:17:48;42.58;;;16.02;;
69008;SDS011;56065;52.472;13.380;2023-02-11T01:20:15;42.30;;;16.03;;
69008;SDS011;56065;52.472;13.380;2023-02-11T01:22:44;38.77;;;16.07;;
69008;SDS011;56065;52.472;13.380;2023-02-11T01:25:10;40.25;;;15.52;;
69008;SDS011;56065;52.472;13.380;2023-02-11T01:27:35;37.00;;;14.40;;
69008;SDS011;56065;52.472;13.380;2023-02-11T01:30:01;38.08;;;15.05;;
69008;SDS011;56065;52.472;13.380;2023-02-11T01:32:28;42.00;;;15.20;;
69008;SDS011;56065;52.472;13.380;2023-02-11T01:34:53;39.43;;;14.47;;
69008;SDS011;56065;52.472;13.380;2023-02-11T01:37:19;43.33;;;15.70;;
69008;SDS011;56065;52.472;13.380;2023-02-11T01:39:44;35.47;;;13.97;;
69008;SDS011;56065;52.472;13.380;2023-02-11T01:42:16;39.87;;;13.90;;
69008;SDS011;56065;52.472;13.380;2023-02-11T01:44:43;39.83;;;15.60;;
69008;SDS011;56065;52.472;13.380;2023-02-11T01:47:09;41.00;;;14.00;;
69008;SDS011;56065;52.472;13.380;2023-02-11T01:49:36;33.43;;;13.60;;
69008;SDS011;56065;52.472;13.380;2023-02-11T01:52:22;37.70;;;14.02;;
69008;SDS011;56065;52.472;13.380;2023-02-11T01:54:53;37.75;;;14.50;;
69008;SDS011;56065;52.472;13.380;2023-02-11T01:57:43;40.35;;;14.43;;
69008;SDS011;56065;52.472;13.380;2023-02-11T02:00:12;36.10;;;13.30;;
69008;SDS011;56065;52.472;13.380;2023-02-11T02:05:43;37.55;;;14.60;;
69008;SDS011;56065;52.472;13.380;2023-02-11T02:10:57;36.85;;;14.05;;
69008;SDS011;56065;52.472;13.380;2023-02-11T02:13:25;38.33;;;15.10;;
69008;SDS011;56065;52.472;13.380;2023-02-11T02:15:56;36.80;;;14.13;;
69008;SDS011;56065;52.472;13.380;2023-02-11T02:18:28;32.67;;;13.65;;
69008;SDS011;56065;52.472;13.380;2023-02-11T02:40:16;36.35;;;14.32;;
69008;SDS011;56065;52.472;13.380;2023-02-11T02:42:47;40.40;;;14.70;;
69008;SDS011;56065;52.472;13.380;2023-02-11T02:45:13;37.70;;;15.65;;
69008;SDS011;56065;52.472;13.380;2023-02-11T02:47:39;37.53;;;15.10;;
69008;SDS011;56065;52.472;13.380;2023-02-11T02:50:04;37.10;;;15.07;;
69008;SDS011;56065;52.472;13.380;2023-02-11T03:03:12;40.75;;;16.05;;
69008;SDS011;56065;52.472;13.380;2023-02-11T03:11:08;37.37;;;14.57;;
69008;SDS011;56065;52.472;13.380;2023-02-11T03:13:35;40.47;;;15.77;;
69008;SDS011;56065;52.472;13.380;2023-02-11T03:16:12;40.63;;;15.60;;
69008;SDS011;56065;52.472;13.380;2023-02-11T03:18:41;44.88;;;17.48;;
69008;SDS011;56065;52.472;13.380;2023-02-11T03:21:12;41.83;;;17.45;;
69008;SDS011;56065;52.472;13.380;2023-02-11T03:23:46;39.87;;;16.47;;
69008;SDS011;56065;52.472;13.380;2023-02-11T03:26:17;43.10;;;17.52;;
69008;SDS011;56065;52.472;13.380;2023-02-11T03:31:43;39.13;;;15.50;;
69008;SDS011;56065;52.472;13.380;2023-02-11T03:36:55;39.47;;;17.00;;
69008;SDS011;56065;52.472;13.380;2023-02-11T03:39:30;43.97;;;17.73;;
69008;SDS011;56065;52.472;13.380;2023-02-11T03:41:59;41.40;;;17.35;;
69008;SDS011;56065;52.472;13.380;2023-02-11T03:44:28;38.83;;;16.48;;
69008;SDS011;56065;52.472;13.380;2023-02-11T03:47:01;39.97;;;15.32;;
69008;SDS011;56065;52.472;13.380;2023-02-11T03:49:29;43.23;;;17.83;;
69008;SDS011;56065;52.472;13.380;2023-02-11T03:51:57;40.70;;;16.45;;
69008;SDS011;56065;52.472;13.380;2023-02-11T03:54:27;50.40;;;18.70;;
69008;SDS011;56065;52.472;13.380;2023-02-11T03:56:55;42.72;;;17.15;;
69008;SDS011;56065;52.472;13.380;2023-02-11T03:59:23;47.20;;;18.08;;
69008;SDS011;56065;52.472;13.380;2023-02-11T04:01:49;41.90;;;17.07;;
69008;SDS011;56065;52.472;13.380;2023-02-11T04:04:15;40.22;;;17.30;;
69008;SDS011;56065;52.472;13.380;2023-02-11T04:06:40;39.20;;;16.10;;
69008;SDS011;56065;52.472;13.380;2023-02-11T04:09:05;43.87;;;17.27;;
69008;SDS011;56065;52.472;13.380;2023-02-11T04:11:31;44.90;;;19.08;;
69008;SDS011;56065;52.472;13.380;2023-02-11T04:13:57;46.67;;;18.43;;
69008;SDS011;56065;52.472;13.380;2023-02-11T04:16:22;45.10;;;17.83;;
69008;SDS011;56065;52.472;13.380;2023-02-11T04:18:48;45.43;;;18.17;;
69008;SDS011;56065;52.472;13.380;2023-02-11T04:21:13;45.27;;;17.43;;
69008;SDS011;56065;52.472;13.380;2023-02-11T04:23:38;45.50;;;17.47;;
69008;SDS011;56065;52.472;13.380;2023-02-11T04:26:04;41.53;;;17.00;;
69008;SDS011;56065;52.472;13.380;2023-02-11T04:28:30;47.63;;;19.92;;
69008;SDS011;56065;52.472;13.380;2023-02-11T04:30:55;41.60;;;16.83;;
69008;SDS011;56065;52.472;13.380;2023-02-11T04:33:21;42.73;;;17.50;;
69008;SDS011;56065;52.472;13.380;2023-02-11T04:35:46;41.85;;;17.33;;
69008;SDS011;56065;52.472;13.380;2023-02-11T04:38:12;45.30;;;19.43;;
69008;SDS011;56065;52.472;13.380;2023-02-11T04:40:37;45.97;;;18.53;;
69008;SDS011;56065;52.472;13.380;2023-02-11T04:43:03;49.65;;;18.30;;
69008;SDS011;56065;52.472;13.380;2023-02-11T04:45:28;43.83;;;19.43;;
69008;SDS011;56065;52.472;13.380;2023-02-11T04:47:53;45.13;;;18.63;;
69008;SDS011;56065;52.472;13.380;2023-02-11T04:50:19;47.73;;;19.13;;
69008;SDS011;56065;52.472;13.380;2023-02-11T04:52:44;53.00;;;19.13;;
69008;SDS011;56065;52.472;13.380;2023-02-11T04:55:10;50.27;;;18.80;;
69008;SDS011;56065;52.472;13.380;2023-02-11T04:57:35;43.08;;;17.52;;
69008;SDS011;56065;52.472;13.380;2023-02-11T05:00:01;52.17;;;19.00;;
69008;SDS011;56065;52.472;13.380;2023-02-11T05:02:26;48.28;;;18.88;;
69008;SDS011;56065;52.472;13.380;2023-02-11T05:04:52;48.23;;;20.67;;
69008;SDS011;56065;52.472;13.380;2023-02-11T05:07:17;52.27;;;20.20;;
69008;SDS011;56065;52.472;13.380;2023-02-11T05:09:42;53.63;;;21.80;;
69008;SDS011;56065;52.472;13.380;2023-02-11T05:12:08;50.70;;;20.37;;
69008;SDS011;56065;52.472;13.380;2023-02-11T05:14:34;43.22;;;18.27;;
69008;SDS011;56065;52.472;13.380;2023-02-11T05:16:59;47.60;;;19.37;;
69008;SDS011;56065;52.472;13.380;2023-02-11T05:19:24;43.30;;;19.37;;
69008;SDS011;56065;52.472;13.380;2023-02-11T05:21:50;52.13;;;21.63;;
69008;SDS011;56065;52.472;13.380;2023-02-11T05:24:15;50.25;;;18.52;;
69008;SDS011;56065;52.472;13.380;2023-02-11T05:26:40;46.23;;;19.27;;
69008;SDS011;56065;52.472;13.380;2023-02-11T05:29:06;50.80;;;19.87;;
69008;SDS011;56065;52.472;13.380;2023-02-11T05:31:31;49.40;;;19.83;;
69008;SDS011;56065;52.472;13.380;2023-02-11T05:33:57;52.05;;;20.77;;
69008;SDS011;56065;52.472;13.380;2023-02-11T05:36:22;56.73;;;22.47;;
69008;SDS011;56065;52.472;13.380;2023-02-11T05:38:48;48.97;;;19.80;;
69008;SDS011;56065;52.472;13.380;2023-02-11T05:41:14;49.40;;;19.58;;
69008;SDS011;56065;52.472;13.380;2023-02-11T05:43:40;45.47;;;19.73;;
69008;SDS011;56065;52.472;13.380;2023-02-11T05:46:05;48.90;;;20.67;;
69008;SDS011;56065;52.472;13.380;2023-02-11T05:48:31;51.55;;;21.15;;
69008;SDS011;56065;52.472;13.380;2023-02-11T05:50:56;48.90;;;20.27;;
69008;SDS011;56065;52.472;13.380;2023-02-11T05:53:22;53.70;;;22.67;;
69008;SDS011;56065;52.472;13.380;2023-02-11T05:55:47;51.67;;;23.07;;
69008;SDS011;56065;52.472;13.380;2023-02-11T05:58:12;51.73;;;19.97;;
69008;SDS011;56065;52.472;13.380;2023-02-11T06:00:38;54.67;;;21.13;;
69008;SDS011;56065;52.472;13.380;2023-02-11T06:03:03;55.93;;;21.70;;
69008;SDS011;56065;52.472;13.380;2023-02-11T06:05:29;55.75;;;21.83;;
69008;SDS011;56065;52.472;13.380;2023-02-11T06:07:55;53.63;;;21.17;;
69008;SDS011;56065;52.472;13.380;2023-02-11T06:10:21;52.63;;;21.35;;
69008;SDS011;56065;52.472;13.380;2023-02-11T06:12:46;58.87;;;22.50;;
69008;SDS011;56065;52.472;13.380;2023-02-11T06:15:11;60.00;;;22.27;;
69008;SDS011;56065;52.472;13.380;2023-02-11T06:17:37;53.57;;;20.00;;
69008;SDS011;56065;52.472;13.380;2023-02-11T06:20:03;48.85;;;20.65;;
69008;SDS011;56065;52.472;13.380;2023-02-11T06:22:30;49.97;;;19.93;;
69008;SDS011;56065;52.472;13.380;2023-02-11T06:24:56;56.72;;;22.27;;
69008;SDS011;56065;52.472;13.380;2023-02-11T06:27:21;55.50;;;21.10;;
69008;SDS011;56065;52.472;13.380;2023-02-11T06:29:46;59.53;;;23.73;;
69008;SDS011;56065;52.472;13.380;2023-02-11T06:32:12;50.30;;;21.10;;
69008;SDS011;56065;52.472;13.380;2023-02-11T06:34:38;55.13;;;22.33;;
69008;SDS011;56065;52.472;13.380;2023-02-11T06:37:04;55.30;;;21.20;;
69008;SDS011;56065;52.472;13.380;2023-02-11T06:39:29;55.83;;;22.80;;
69008;SDS011;56065;52.472;13.380;2023-02-11T06:41:54;57.90;;;22.43;;
69008;SDS011;56065;52.472;13.380;2023-02-11T06:44:20;58.77;;;24.43;;
69008;SDS011;56065;52.472;13.380;2023-02-11T06:46:45;60.97;;;23.67;;
69008;SDS011;56065;52.472;13.380;2023-02-11T06:49:11;62.63;;;22.98;;
69008;SDS011;56065;52.472;13.380;2023-02-11T06:51:37;61.00;;;23.92;;
69008;SDS011;56065;52.472;13.380;2023-02-11T06:54:03;63.77;;;24.93;;
69008;SDS011;56065;52.472;13.380;2023-02-11T06:56:30;57.00;;;21.92;;
69008;SDS011;56065;52.472;13.380;2023-02-11T06:58:55;58.77;;;23.40;;
69008;SDS011;56065;52.472;13.380;2023-02-11T07:01:21;62.00;;;24.53;;
69008;SDS011;56065;52.472;13.380;2023-02-11T07:03:47;59.35;;;23.45;;
69008;SDS011;56065;52.472;13.380;2023-02-11T07:06:14;55.23;;;22.20;;
69008;SDS011;56065;52.472;13.380;2023-02-11T07:08:42;64.55;;;24.40;;
69008;SDS011;56065;52.472;13.380;2023-02-11T07:11:10;55.10;;;22.00;;
69008;SDS011;56065;52.472;13.380;2023-02-11T07:13:43;59.22;;;22.98;;
69008;SDS011;56065;52.472;13.380;2023-02-11T07:16:11;49.83;;;19.65;;
69008;SDS011;56065;52.472;13.380;2023-02-11T07:18:38;56.90;;;22.83;;
69008;SDS011;56065;52.472;13.380;2023-02-11T07:21:04;57.10;;;22.13;;
69008;SDS011;56065;52.472;13.380;2023-02-11T07:23:31;66.03;;;26.13;;
69008;SDS011;56065;52.472;13.380;2023-02-11T07:26:00;54.90;;;21.92;;
69008;SDS011;56065;52.472;13.380;2023-02-11T07:28:27;63.53;;;24.67;;
69008;SDS011;56065;52.472;13.380;2023-02-11T07:30:52;62.00;;;24.13;;
69008;SDS011;56065;52.472;13.380;2023-02-11T07:33:18;57.65;;;22.60;;
69008;SDS011;56065;52.472;13.380;2023-02-11T07:35:43;59.73;;;24.00;;
69008;SDS011;56065;52.472;13.380;2023-02-11T07:38:08;54.97;;;22.63;;
69008;SDS011;56065;52.472;13.380;2023-02-11T07:40:34;60.93;;;23.70;;
69008;SDS011;56065;52.472;13.380;2023-02-11T07:43:00;58.65;;;23.58;;
69008;SDS011;56065;52.472;13.380;2023-02-11T07:45:25;61.20;;;23.97;;
69008;SDS011;56065;52.472;13.380;2023-02-11T07:47:51;57.57;;;22.93;;
69008;SDS011;56065;52.472;13.380;2023-02-11T07:50:16;54.35;;;19.45;;
69008;SDS011;56065;52.472;13.380;2023-02-11T07:52:42;53.17;;;22.17;;
69008;SDS011;56065;52.472;13.380;2023-02-11T07:55:07;50.47;;;19.27;;
69008;SDS011;56065;52.472;13.380;2023-02-11T07:57:33;53.70;;;21.33;;
69008;SDS011;56065;52.472;13.380;2023-02-11T07:59:59;54.43;;;20.53;;
69008;SDS011;56065;52.472;13.380;2023-02-11T08:02:24;52.50;;;20.03;;
69008;SDS011;56065;52.472;13.380;2023-02-11T08:04:50;57.37;;;21.90;;
69008;SDS011;56065;52.472;13.380;2023-02-11T08:07:17;57.10;;;25.27;;
69008;SDS011;56065;52.472;13.380;2023-02-11T08:09:43;56.78;;;22.45;;
69008;SDS011;56065;52.472;13.380;2023-02-11T08:12:08;51.05;;;20.55;;
69008;SDS011;56065;52.472;13.380;2023-02-11T08:14:33;52.63;;;20.50;;
69008;SDS011;56065;52.472;13.380;2023-02-11T08:16:59;52.80;;;21.33;;
69008;SDS011;56065;52.472;13.380;2023-02-11T08:19:24;54.47;;;22.57;;
69008;SDS011;56065;52.472;13.380;2023-02-11T08:21:53;50.50;;;19.73;;
69008;SDS011;56065;52.472;13.380;2023-02-11T08:24:20;50.40;;;19.98;;
69008;SDS011;56065;52.472;13.380;2023-02-11T08:26:45;56.80;;;22.57;;
69008;SDS011;56065;52.472;13.380;2023-02-11T08:29:12;57.47;;;23.83;;
69008;SDS011;56065;52.472;13.380;2023-02-11T08:31:39;52.03;;;21.02;;
69008;SDS011;56065;52.472;13.380;2023-02-11T08:34:06;52.80;;;22.73;;
69008;SDS011;56065;52.472;13.380;2023-02-11T08:36:33;52.03;;;20.00;;
69008;SDS011;56065;52.472;13.380;2023-02-11T08:39:00;52.40;;;20.90;;
69008;SDS011;56065;52.472;13.380;2023-02-11T08:41:29;46.22;;;19.75;;
69008;SDS011;56065;52.472;13.380;2023-02-11T08:43:54;57.65;;;22.05;;
69008;SDS011;56065;52.472;13.380;2023-02-11T08:46:20;54.53;;;22.47;;
69008;SDS011;56065;52.472;13.380;2023-02-11T08:48:45;62.87;;;24.70;;
69008;SDS011;56065;52.472;13.380;2023-02-11T08:51:19;53.90;;;21.55;;
69008;SDS011;56065;52.472;13.380;2023-02-11T08:53:46;50.63;;;19.75;;
69008;SDS011;56065;52.472;13.380;2023-02-11T08:56:12;65.03;;;24.93;;
69008;SDS011;56065;52.472;13.380;2023-02-11T08:58:38;56.03;;;21.13;;
69008;SDS011;56065;52.472;13.380;2023-02-11T09:01:14;51.90;;;19.87;;
69008;SDS011;56065;52.472;13.380;2023-02-11T09:03:41;54.37;;;20.43;;
69008;SDS011;56065;52.472;13.380;2023-02-11T09:06:08;56.60;;;22.00;;
69008;SDS011;56065;52.472;13.380;2023-02-11T09:08:35;48.90;;;20.80;;
69008;SDS011;56065;52.472;13.380;2023-02-11T09:11:01;61.55;;;22.08;;
69008;SDS011;56065;52.472;13.380;2023-02-11T09:13:27;51.53;;;21.40;;
69008;SDS011;56065;52.472;13.380;2023-02-11T09:15:53;54.90;;;20.37;;
69008;SDS011;56065;52.472;13.380;2023-02-11T09:18:18;52.93;;;21.57;;
69008;SDS011;56065;52.472;13.380;2023-02-11T09:20:44;52.78;;;20.98;;
69008;SDS011;56065;52.472;13.380;2023-02-11T09:23:09;51.20;;;19.87;;
69008;SDS011;56065;52.472;13.380;2023-02-11T09:25:34;55.30;;;21.10;;
69008;SDS011;56065;52.472;13.380;2023-02-11T09:28:03;47.25;;;19.42;;
69008;SDS011;56065;52.472;13.380;2023-02-11T09:30:28;47.83;;;19.83;;
69008;SDS011;56065;52.472;13.380;2023-02-11T09:32:54;53.23;;;19.17;;
69008;SDS011;56065;52.472;13.380;2023-02-11T09:35:19;45.23;;;19.00;;
69008;SDS011;56065;52.472;13.380;2023-02-11T09:37:44;48.63;;;19.83;;
69008;SDS011;56065;52.472;13.380;2023-02-11T09:40:10;49.77;;;21.17;;
69008;SDS011;56065;52.472;13.380;2023-02-11T09:42:42;49.17;;;19.40;;
69008;SDS011;56065;52.472;13.380;2023-02-11T09:45:24;47.85;;;18.25;;
69008;SDS011;56065;52.472;13.380;2023-02-11T09:48:01;52.05;;;19.98;;
69008;SDS011;56065;52.472;13.380;2023-02-11T09:50:35;46.17;;;19.97;;
69008;SDS011;56065;52.472;13.380;2023-02-11T09:55:56;46.33;;;19.15;;
69008;SDS011;56065;52.472;13.380;2023-02-11T10:03:31;48.67;;;20.00;;
69008;SDS011;56065;52.472;13.380;2023-02-11T10:12:19;48.90;;;19.27;;
69008;SDS011;56065;52.472;13.380;2023-02-11T10:15:12;42.30;;;18.25;;
69008;SDS011;56065;52.472;13.380;2023-02-11T10:22:57;44.78;;;18.63;;
69008;SDS011;56065;52.472;13.380;2023-02-11T10:25:37;45.65;;;18.25;;
69008;SDS011;56065;52.472;13.380;2023-02-11T10:28:15;46.28;;;19.25;;
69008;SDS011;56065;52.472;13.380;2023-02-11T10:30:56;53.27;;;20.13;;
69008;SDS011;56065;52.472;13.380;2023-02-11T10:33:35;48.28;;;19.15;;
69008;SDS011;56065;52.472;13.380;2023-02-11T10:36:11;45.58;;;19.40;;
69008;SDS011;56065;52.472;13.380;2023-02-11T10:38:37;44.78;;;18.20;;
69008;SDS011;56065;52.472;13.380;2023-02-11T10:41:03;44.27;;;17.87;;
69008;SDS011;56065;52.472;13.380;2023-02-11T10:43:30;41.95;;;19.27;;
69008;SDS011;56065;52.472;13.380;2023-02-11T10:45:57;45.55;;;18.98;;
69008;SDS011;56065;52.472;13.380;2023-02-11T10:51:24;44.93;;;18.10;;
69008;SDS011;56065;52.472;13.380;2023-02-11T10:56:28;44.53;;;17.27;;
69008;SDS011;56065;52.472;13.380;2023-02-11T10:58:59;46.28;;;19.48;;
69008;SDS011;56065;52.472;13.380;2023-02-11T11:01:38;45.33;;;17.70;;
69008;SDS011;56065;52.472;13.380;2023-02-11T11:06:54;44.40;;;18.83;;
69008;SDS011;56065;52.472;13.380;2023-02-11T11:09:26;44.00;;;17.27;;
69008;SDS011;56065;52.472;13.380;2023-02-11T11:11:54;41.92;;;17.58;;
69008;SDS011;56065;52.472;13.380;2023-02-11T11:14:20;45.03;;;17.80;;
69008;SDS011;56065;52.472;13.380;2023-02-11T11:16:53;44.95;;;19.92;;
69008;SDS011;56065;52.472;13.380;2023-02-11T11:19:23;40.33;;;17.20;;
69008;SDS011;56065;52.472;13.380;2023-02-11T11:21:53;42.42;;;17.83;;
69008;SDS011;56065;52.472;13.380;2023-02-11T11:24:31;45.80;;;18.50;;
69008;SDS011;56065;52.472;13.380;2023-02-11T11:26:59;44.27;;;18.77;;
69008;SDS011;56065;52.472;13.380;2023-02-11T11:29:39;41.78;;;18.25;;
69008;SDS011;56065;52.472;13.380;2023-02-11T11:34:39;39.78;;;17.33;;
69008;SDS011;56065;52.472;13.380;2023-02-11T11:37:18;39.63;;;16.10;;
69008;SDS011;56065;52.472;13.380;2023-02-11T11:40:06;35.20;;;15.33;;
69008;SDS011;56065;52.472;13.380;2023-02-11T11:42:34;42.08;;;16.48;;
69008;SDS011;56065;52.472;13.380;2023-02-11T11:51:09;41.50;;;16.63;;
69008;SDS011;56065;52.472;13.380;2023-02-11T11:58:40;33.95;;;13.48;;
69008;SDS011;56065;52.472;13.380;2023-02-11T12:13:02;32.75;;;13.52;;
69008;SDS011;56065;52.472;13.380;2023-02-11T12:15:50;36.80;;;14.45;;
69008;SDS011;56065;52.472;13.380;2023-02-11T12:21:21;36.33;;;14.13;;
69008;SDS011;56065;52.472;13.380;2023-02-11T12:27:26;30.33;;;11.80;;
69008;SDS011;56065;52.472;13.380;2023-02-11T12:43:38;26.63;;;12.05;;
69008;SDS011;56065;52.472;13.380;2023-02-11T12:54:33;26.45;;;11.23;;
69008;SDS011;56065;52.472;13.380;2023-02-11T12:57:20;27.88;;;12.00;;
69008;SDS011;56065;52.472;13.380;2023-02-11T13:07:46;29.00;;;10.95;;
69008;SDS011;56065;52.472;13.380;2023-02-11T13:10:24;31.05;;;12.60;;
69008;SDS011;56065;52.472;13.380;2023-02-11T13:12:54;30.13;;;12.05;;
69008;SDS011;56065;52.472;13.380;2023-02-11T13:15:40;29.40;;;12.30;;
69008;SDS011;56065;52.472;13.380;2023-02-11T13:26:13;27.85;;;12.35;;
69008;SDS011;56065;52.472;13.380;2023-02-11T13:28:51;32.07;;;13.67;;
69008;SDS011;56065;52.472;13.380;2023-02-11T13:31:21;27.25;;;11.50;;
69008;SDS011;56065;52.472;13.380;2023-02-11T13:33:50;27.90;;;11.88;;
69008;SDS011;56065;52.472;13.380;2023-02-11T13:36:19;26.33;;;12.13;;
69008;SDS011;56065;52.472;13.380;2023-02-11T13:38:50;32.40;;;12.15;;
69008;SDS011;56065;52.472;13.380;2023-02-11T13:41:31;27.58;;;11.88;;
69008;SDS011;56065;52.472;13.380;2023-02-11T13:44:12;26.60;;;10.60;;
69008;SDS011;56065;52.472;13.380;2023-02-11T13:49:20;28.00;;;11.68;;
69008;SDS011;56065;52.472;13.380;2023-02-11T13:51:48;27.10;;;11.65;;
69008;SDS011;56065;52.472;13.380;2023-02-11T13:54:22;27.08;;;10.68;;
69008;SDS011;56065;52.472;13.380;2023-02-11T14:02:08;27.27;;;12.17;;
69008;SDS011;56065;52.472;13.380;2023-02-11T14:13:35;28.10;;;12.35;;
69008;SDS011;56065;52.472;13.380;2023-02-11T14:16:21;23.67;;;10.10;;
69008;SDS011;56065;52.472;13.380;2023-02-11T14:21:14;27.03;;;11.73;;
69008;SDS011;56065;52.472;13.380;2023-02-11T14:23:44;25.98;;;11.07;;
69008;SDS011;56065;52.472;13.380;2023-02-11T14:28:49;30.30;;;12.95;;
69008;SDS011;56065;52.472;13.380;2023-02-11T14:31:23;23.40;;;10.10;;
69008;SDS011;56065;52.472;13.380;2023-02-11T14:36:35;30.05;;;11.82;;
69008;SDS011;56065;52.472;13.380;2023-02-11T14:41:55;23.55;;;9.90;;
69008;SDS011;56065;52.472;13.380;2023-02-11T14:44:22;24.17;;;9.53;;
69008;SDS011;56065;52.472;13.380;2023-02-11T14:46:51;24.48;;;10.25;;
69008;SDS011;56065;52.472;13.380;2023-02-11T14:49:20;26.02;;;10.93;;
69008;SDS011;56065;52.472;13.380;2023-02-11T14:55:39;24.40;;;8.93;;
69008;SDS011;56065;52.472;13.380;2023-02-11T14:57:43;24.83;;;9.95;;
69008;SDS011;56065;52.472;13.380;2023-02-11T15:00:14;22.10;;;9.05;;
69008;SDS011;56065;52.472;13.380;2023-02-11T15:02:42;27.30;;;11.10;;
69008;SDS011;56065;52.472;13.380;2023-02-11T15:07:47;20.92;;;8.55;;
69008;SDS011;56065;52.472;13.380;2023-02-11T15:10:17;22.15;;;9.70;;
69008;SDS011;56065;52.472;13.380;2023-02-11T15:12:50;28.20;;;9.73;;
69008;SDS011;56065;52.472;13.380;2023-02-11T15:15:16;21.93;;;8.93;;
69008;SDS011;56065;52.472;13.380;2023-02-11T15:17:41;22.77;;;9.90;;
69008;SDS011;56065;52.472;13.380;2023-02-11T15:20:14;27.30;;;10.03;;
69008;SDS011;56065;52.472;13.380;2023-02-11T15:22:46;25.50;;;9.05;;
69008;SDS011;56065;52.472;13.380;2023-02-11T15:25:15;23.95;;;9.80;;
69008;SDS011;56065;52.472;13.380;2023-02-11T15:27:51;23.40;;;9.63;;
69008;SDS011;56065;52.472;13.380;2023-02-11T15:32:46;17.50;;;7.60;;
69008;SDS011;56065;52.472;13.380;2023-02-11T15:35:12;17.70;;;7.00;;
69008;SDS011;56065;52.472;13.380;2023-02-11T15:37:40;20.03;;;8.67;;
69008;SDS011;56065;52.472;13.380;2023-02-11T15:40:14;17.63;;;7.63;;
69008;SDS011;56065;52.472;13.380;2023-02-11T15:42:52;18.37;;;7.70;;
69008;SDS011;56065;52.472;13.380;2023-02-11T15:45:21;17.83;;;8.05;;
69008;SDS011;56065;52.472;13.380;2023-02-11T15:47:51;18.52;;;7.80;;
69008;SDS011;56065;52.472;13.380;2023-02-11T15:50:29;19.02;;;8.15;;
69008;SDS011;56065;52.472;13.380;2023-02-11T15:52:57;17.60;;;7.78;;
69008;SDS011;56065;52.472;13.380;2023-02-11T15:55:26;19.17;;;7.67;;
69008;SDS011;56065;52.472;13.380;2023-02-11T15:57:57;18.40;;;8.10;;
69008;SDS011;56065;52.472;13.380;2023-02-11T16:00:33;17.52;;;7.22;;
69008;SDS011;56065;52.472;13.380;2023-02-11T16:03:01;16.33;;;7.28;;
69008;SDS011;56065;52.472;13.380;2023-02-11T16:05:31;19.05;;;7.63;;
69008;SDS011;56065;52.472;13.380;2023-02-11T16:07:58;18.90;;;7.80;;
69008;SDS011;56065;52.472;13.380;2023-02-11T16:10:31;15.02;;;6.35;;
69008;SDS011;56065;52.472;13.380;2023-02-11T16:17:59;18.30;;;7.60;;
69008;SDS011;56065;52.472;13.380;2023-02-11T16:20:26;16.47;;;7.20;;
69008;SDS011;56065;52.472;13.380;2023-02-11T16:22:51;18.02;;;7.38;;
69008;SDS011;56065;52.472;13.380;2023-02-11T16:25:18;14.50;;;6.30;;
69008;SDS011;56065;52.472;13.380;2023-02-11T16:27:52;15.60;;;6.85;;
69008;SDS011;56065;52.472;13.380;2023-02-11T16:30:28;15.30;;;6.45;;
69008;SDS011;56065;52.472;13.380;2023-02-11T16:32:58;13.77;;;6.28;;
69008;SDS011;56065;52.472;13.380;2023-02-11T16:35:23;17.07;;;6.90;;
69008;SDS011;56065;52.472;13.380;2023-02-11T16:37:48;15.13;;;6.37;;
69008;SDS011;56065;52.472;13.380;2023-02-11T16:40:14;14.23;;;6.20;;
69008;SDS011;56065;52.472;13.380;2023-02-11T16:42:40;12.23;;;5.75;;
69008;SDS011;56065;52.472;13.380;2023-02-11T16:45:05;13.73;;;5.73;;
69008;SDS011;56065;52.472;13.380;2023-02-11T16:47:31;13.50;;;6.13;;
69008;SDS011;56065;52.472;13.380;2023-02-11T16:49:58;16.58;;;6.40;;
69008;SDS011;56065;52.472;13.380;2023-02-11T16:52:25;18.00;;;6.90;;
69008;SDS011;56065;52.472;13.380;2023-02-11T16:54:51;13.13;;;5.77;;
69008;SDS011;56065;52.472;13.380;2023-02-11T16:57:21;15.37;;;6.40;;
69008;SDS011;56065;52.472;13.380;2023-02-11T16:59:47;13.13;;;6.05;;
69008;SDS011;56065;52.472;13.380;2023-02-11T17:02:14;15.77;;;6.53;;
69008;SDS011;56065;52.472;13.380;2023-02-11T17:04:44;11.47;;;5.77;;
69008;SDS011;56065;52.472;13.380;2023-02-11T17:07:09;14.13;;;6.32;;
69008;SDS011;56065;52.472;13.380;2023-02-11T17:09:35;14.50;;;6.37;;
69008;SDS011;56065;52.472;13.380;2023-02-11T17:12:00;11.50;;;5.10;;
69008;SDS011;56065;52.472;13.380;2023-02-11T17:14:25;16.33;;;6.63;;
69008;SDS011;56065;52.472;13.380;2023-02-11T17:16:51;12.65;;;6.07;;
69008;SDS011;56065;52.472;13.380;2023-02-11T17:19:17;15.27;;;6.53;;
69008;SDS011;56065;52.472;13.380;2023-02-11T17:21:45;14.00;;;6.80;;